Terminal Aerodrome Forecast
Issued by NWS Jackson, MS

Home | Current Version | Previous Version | Text Only | Print | Product List | Glossary On
Versions: 1 2 3 4 5 6 7 8 9 10 11 12 13 14 15 16 17 18 19 20
000
FTUS44 KJAN 191122
TAFJAN
TAF
KJAN 191122Z 1912/2012 15006KT P6SM OVC010
     FM191500 17016G23KT P6SM BKN030 BKN250
     FM200000 15010KT P6SM BKN250
     FM200600 16013KT P6SM OVC015=

USA.gov is the U.S. government's official web portal to all federal, state and local government web resources and services.